createdAt,value
2023-08-14T00:01:24.313Z,22.17
2023-08-14T00:11:26.848Z,22.17
2023-08-14T00:21:30.794Z,22.20
2023-08-14T00:31:33.530Z,22.18
2023-08-14T00:41:38.161Z,22.17
2023-08-14T00:51:40.698Z,22.20
2023-08-14T01:01:44.505Z,22.19
2023-08-14T01:11:55.872Z,21.97
2023-08-14T01:22:04.717Z,21.40
2023-08-14T01:32:08.712Z,21.39
2023-08-14T01:42:15.853Z,21.65
2023-08-14T01:52:20.235Z,21.85
2023-08-14T02:02:22.923Z,21.41
2023-08-14T02:12:26.857Z,21.53
2023-08-14T02:22:29.332Z,21.46
2023-08-14T02:32:33.335Z,21.65
2023-08-14T02:42:35.897Z,21.66
2023-08-14T02:52:39.929Z,21.70
2023-08-14T03:02:42.842Z,21.73
2023-08-14T03:12:46.831Z,21.56
2023-08-14T03:22:49.336Z,21.69
2023-08-14T03:32:53.306Z,21.57
2023-08-14T03:42:55.973Z,21.57
2023-08-14T03:52:59.843Z,21.49
2023-08-14T04:03:03.245Z,21.46
2023-08-14T04:13:07.410Z,21.29
2023-08-14T04:23:09.902Z,21.35
2023-08-14T04:33:13.852Z,21.39
2023-08-14T04:43:16.451Z,21.38
2023-08-14T04:53:20.244Z,21.23
2023-08-14T05:03:22.802Z,21.22
2023-08-14T05:13:26.723Z,21.33
2023-08-14T05:23:29.243Z,21.40
2023-08-14T05:33:33.036Z,21.23
2023-08-14T05:43:35.580Z,21.49
2023-08-14T05:53:39.441Z,21.54
2023-08-14T06:03:44.852Z,21.61
2023-08-14T06:13:49.108Z,21.70
2023-08-14T06:23:51.819Z,21.73
2023-08-14T06:33:55.736Z,21.76
2023-08-14T06:43:58.649Z,21.71
2023-08-14T06:54:02.549Z,21.85
2023-08-14T07:04:05.318Z,22.06
2023-08-14T07:14:09.234Z,22.24
2023-08-14T07:24:13.632Z,22.39
2023-08-14T07:34:17.483Z,22.37
2023-08-14T07:44:19.964Z,22.31
2023-08-14T07:54:23.829Z,22.66
2023-08-14T08:04:26.857Z,22.81
2023-08-14T08:14:30.995Z,23.02
2023-08-14T08:24:33.555Z,23.12
2023-08-14T08:34:37.710Z,23.36
2023-08-14T08:44:43.046Z,23.61
2023-08-14T08:54:47.387Z,23.89
2023-08-14T09:04:49.881Z,24.18
2023-08-14T09:15:05.106Z,24.49
2023-08-14T09:25:08.707Z,24.65
2023-08-14T09:35:12.622Z,24.88
2023-08-14T09:45:15.571Z,25.19
2023-08-14T09:55:19.635Z,25.49
2023-08-14T10:05:22.676Z,25.87
2023-08-14T10:15:28.161Z,26.21
2023-08-14T10:25:31.039Z,26.49
2023-08-14T10:35:45.265Z,27.10
2023-08-14T10:45:47.786Z,26.94
2023-08-14T10:55:51.769Z,27.20
2023-08-14T11:05:54.369Z,27.30
2023-08-14T11:15:59.128Z,28.05
2023-08-14T11:26:01.682Z,28.68
2023-08-14T11:36:11.704Z,28.49
2023-08-14T11:46:14.636Z,27.76
2023-08-14T11:56:19.119Z,27.36
2023-08-14T12:06:21.777Z,27.21
2023-08-14T12:16:28.440Z,27.04
2023-08-14T12:26:37.533Z,26.83
2023-08-14T12:36:41.355Z,26.61
2023-08-14T12:46:43.942Z,26.49
2023-08-14T12:56:47.900Z,26.20
2023-08-14T13:06:50.771Z,26.57
2023-08-14T13:16:54.655Z,27.70
2023-08-14T13:27:01.644Z,27.64
2023-08-14T13:37:12.279Z,27.63
2023-08-14T13:47:16.481Z,27.70
2023-08-14T13:57:22.276Z,27.26
2023-08-14T14:07:27.301Z,27.31
2023-08-14T14:17:33.304Z,27.14
2023-08-14T14:27:35.875Z,26.88
2023-08-14T14:37:39.704Z,26.74
2023-08-14T14:47:42.269Z,26.86
2023-08-14T14:57:46.144Z,27.64
2023-08-14T15:07:50.365Z,28.12
2023-08-14T15:17:54.252Z,28.31
2023-08-14T15:27:56.890Z,28.33
2023-08-14T15:38:00.969Z,28.36
2023-08-14T15:48:03.580Z,28.31
2023-08-14T15:58:07.490Z,28.20
2023-08-14T16:08:09.991Z,28.06
2023-08-14T16:18:14.002Z,27.95
2023-08-14T16:28:16.521Z,27.86
2023-08-14T16:38:20.394Z,27.79
2023-08-14T16:48:22.890Z,27.58
2023-08-14T16:58:26.744Z,27.56
2023-08-14T17:08:29.336Z,27.37
2023-08-14T17:18:33.172Z,27.32
2023-08-14T17:28:35.699Z,27.16
2023-08-14T17:38:39.886Z,27.07
2023-08-14T17:48:42.458Z,26.96
2023-08-14T17:58:46.752Z,26.91
2023-08-14T18:08:49.432Z,26.85
2023-08-14T18:18:58.131Z,26.72
2023-08-14T18:29:07.007Z,26.63
2023-08-14T18:39:10.794Z,26.47
2023-08-14T18:49:13.314Z,26.35
2023-08-14T18:59:20.022Z,26.21
2023-08-14T19:09:22.497Z,26.12
2023-08-14T19:19:26.377Z,26.01
2023-08-14T19:29:28.862Z,25.91
2023-08-14T19:39:32.900Z,25.73
2023-08-14T19:49:35.535Z,25.70
2023-08-14T19:59:40.109Z,25.62
2023-08-14T20:09:42.604Z,25.47
2023-08-14T20:19:46.428Z,25.36
2023-08-14T20:29:48.893Z,25.30
2023-08-14T20:39:53.120Z,25.30
2023-08-14T20:49:55.644Z,25.29
2023-08-14T20:59:59.603Z,25.12
2023-08-14T21:10:02.364Z,25.05
2023-08-14T21:20:06.824Z,24.71
2023-08-14T21:40:13.442Z,24.69
2023-08-14T21:50:16.062Z,24.61
2023-08-14T22:00:19.979Z,24.58
2023-08-14T22:10:22.515Z,24.48
2023-08-14T22:20:26.455Z,24.41
2023-08-14T22:30:29.174Z,24.34
2023-08-14T22:40:33.246Z,24.34
2023-08-14T22:50:35.925Z,24.40
2023-08-14T23:00:40.261Z,24.32
2023-08-14T23:10:43.319Z,24.21
2023-08-14T23:20:47.181Z,24.14
2023-08-14T23:30:50.775Z,24.14
2023-08-14T23:40:54.659Z,24.21
2023-08-14T23:50:57.156Z,24.27
